createdAt,value
2019-03-17T00:00:12.632Z,77.90
2019-03-17T00:02:41.134Z,77.00
2019-03-17T00:05:12.745Z,76.80
2019-03-17T00:07:41.234Z,77.10
2019-03-17T00:10:09.947Z,77.20
2019-03-17T00:12:38.349Z,77.30
2019-03-17T00:15:07.851Z,77.60
2019-03-17T00:17:36.326Z,77.20
2019-03-17T00:20:25.886Z,76.50
2019-03-17T00:22:54.367Z,76.30
2019-03-17T00:25:22.926Z,76.30
2019-03-17T00:27:51.447Z,76.40
2019-03-17T00:30:19.892Z,76.10
2019-03-17T00:32:48.359Z,75.60
2019-03-17T00:35:16.782Z,75.80
2019-03-17T00:37:46.691Z,76.30
2019-03-17T00:40:15.146Z,76.30
2019-03-17T00:42:43.543Z,75.90
2019-03-17T00:45:12.492Z,76.30
2019-03-17T00:47:41.000Z,75.70
2019-03-17T00:50:11.015Z,75.90
2019-03-17T00:52:39.431Z,76.20
2019-03-17T00:55:07.957Z,76.00
2019-03-17T00:57:36.390Z,76.00
2019-03-17T01:00:07.907Z,75.90
2019-03-17T01:02:36.351Z,76.00
2019-03-17T01:05:05.830Z,76.10
2019-03-17T01:07:34.270Z,75.90
2019-03-17T01:10:02.798Z,75.70
2019-03-17T01:12:31.212Z,76.30
2019-03-17T01:15:02.993Z,76.30
2019-03-17T01:17:31.695Z,76.40
2019-03-17T01:20:00.340Z,76.50
2019-03-17T01:22:28.931Z,76.80
2019-03-17T01:25:01.769Z,77.00
2019-03-17T01:27:30.282Z,76.90
2019-03-17T01:29:58.722Z,77.00
2019-03-17T01:32:27.399Z,76.90
2019-03-17T01:35:08.128Z,76.70
2019-03-17T01:37:25.918Z,76.50
2019-03-17T01:39:54.366Z,76.40
2019-03-17T01:42:22.780Z,76.10
2019-03-17T01:44:51.239Z,75.30
2019-03-17T01:47:19.657Z,74.50
2019-03-17T01:49:48.135Z,74.10
2019-03-17T01:52:16.586Z,74.10
2019-03-17T01:54:45.022Z,74.30
2019-03-17T01:57:13.437Z,74.10
2019-03-17T01:59:41.868Z,73.80
2019-03-17T02:02:10.292Z,73.40
2019-03-17T02:04:38.783Z,73.30
2019-03-17T02:07:07.201Z,72.60
2019-03-17T02:09:38.182Z,72.80
2019-03-17T02:12:06.755Z,72.80
2019-03-17T02:14:35.247Z,72.60
2019-03-17T02:17:03.677Z,72.60
2019-03-17T02:19:32.662Z,72.80
2019-03-17T02:22:01.104Z,73.10
2019-03-17T02:24:30.004Z,73.30
2019-03-17T02:26:58.531Z,73.10
2019-03-17T02:29:26.995Z,73.20
2019-03-17T02:31:55.500Z,73.30
2019-03-17T02:34:26.607Z,73.60
2019-03-17T02:36:55.121Z,73.90
2019-03-17T02:39:26.228Z,74.00
2019-03-17T02:41:55.251Z,74.10
2019-03-17T02:44:24.047Z,74.10
2019-03-17T02:46:52.519Z,74.40
2019-03-17T02:49:20.999Z,74.40
2019-03-17T02:51:49.465Z,74.40
2019-03-17T02:54:17.870Z,74.30
2019-03-17T02:56:46.401Z,74.10
2019-03-17T02:59:14.825Z,74.40
2019-03-17T03:01:43.343Z,74.60
2019-03-17T03:04:11.833Z,74.60
2019-03-17T03:06:40.256Z,74.30
2019-03-17T03:09:08.751Z,74.10
2019-03-17T03:11:37.177Z,74.60
2019-03-17T03:14:05.623Z,74.90
2019-03-17T03:16:34.081Z,74.80
2019-03-17T03:19:02.482Z,74.80
2019-03-17T03:21:30.936Z,75.00
2019-03-17T03:23:59.361Z,75.00
2019-03-17T03:26:27.955Z,75.10
2019-03-17T03:28:56.383Z,75.20
2019-03-17T03:31:24.819Z,75.00
2019-03-17T03:33:53.306Z,75.10
2019-03-17T03:36:21.743Z,75.30
2019-03-17T03:38:50.271Z,75.10
2019-03-17T03:41:18.792Z,75.30
2019-03-17T03:43:47.276Z,75.60
2019-03-17T03:46:15.747Z,75.80
2019-03-17T03:48:44.244Z,75.90
2019-03-17T03:51:12.716Z,76.10
2019-03-17T03:53:41.152Z,76.20
2019-03-17T03:56:09.675Z,76.00
2019-03-17T03:58:38.170Z,76.10
2019-03-17T04:01:06.619Z,76.20
2019-03-17T04:03:35.123Z,75.90
2019-03-17T04:06:03.596Z,76.00
2019-03-17T04:08:32.127Z,76.20
2019-03-17T04:11:00.651Z,76.10
2019-03-17T04:13:29.126Z,76.30
2019-03-17T04:15:57.548Z,76.60
2019-03-17T04:18:25.987Z,76.50
2019-03-17T04:20:54.408Z,76.40
2019-03-17T04:23:22.897Z,76.70
2019-03-17T04:25:51.327Z,76.50
2019-03-17T04:28:19.769Z,76.50
2019-03-17T04:30:51.095Z,76.50
2019-03-17T04:33:19.521Z,76.00
2019-03-17T04:35:48.020Z,75.60
2019-03-17T04:38:16.465Z,75.80
2019-03-17T04:40:44.904Z,74.80
2019-03-17T04:43:19.038Z,74.90
2019-03-17T04:45:53.035Z,75.00
2019-03-17T04:48:21.535Z,75.40
2019-03-17T04:50:49.987Z,75.60
2019-03-17T04:53:18.411Z,75.90
2019-03-17T04:55:46.931Z,76.00
2019-03-17T04:58:15.380Z,75.90
2019-03-17T05:00:43.813Z,75.80
2019-03-17T05:03:15.466Z,76.10
2019-03-17T05:05:44.037Z,76.50
2019-03-17T05:08:14.071Z,76.70
2019-03-17T05:10:42.505Z,77.20
2019-03-17T05:13:10.975Z,77.40
2019-03-17T05:15:39.413Z,77.60
2019-03-17T05:18:07.860Z,77.70
2019-03-17T05:20:36.310Z,77.60
2019-03-17T05:23:06.056Z,77.30
2019-03-17T05:25:34.611Z,76.80
2019-03-17T05:28:03.026Z,76.90
2019-03-17T05:30:31.489Z,77.00
2019-03-17T05:32:59.894Z,77.00
2019-03-17T05:35:28.353Z,77.30
2019-03-17T05:37:56.763Z,77.00
2019-03-17T05:40:25.194Z,76.70
2019-03-17T05:42:53.622Z,76.60
2019-03-17T05:45:24.863Z,76.60
2019-03-17T05:47:53.302Z,76.30
2019-03-17T05:50:21.838Z,76.80
2019-03-17T05:52:50.291Z,75.90
2019-03-17T05:55:18.745Z,75.50
2019-03-17T05:57:47.174Z,75.30
2019-03-17T06:00:18.194Z,75.20
2019-03-17T06:02:46.639Z,75.00
2019-03-17T06:05:15.032Z,74.80
2019-03-17T06:07:43.510Z,74.70
2019-03-17T06:10:12.100Z,74.60
2019-03-17T06:12:40.523Z,74.50
2019-03-17T06:15:11.221Z,74.30
2019-03-17T06:17:39.605Z,73.70
2019-03-17T06:20:10.291Z,73.10
2019-03-17T06:22:38.746Z,72.80
2019-03-17T06:25:08.873Z,72.10
2019-03-17T06:27:37.318Z,72.20
2019-03-17T06:30:08.565Z,71.20
2019-03-17T06:32:37.079Z,71.10
2019-03-17T06:35:06.043Z,71.20
2019-03-17T06:37:34.509Z,71.10
2019-03-17T06:40:03.394Z,71.50
2019-03-17T06:42:31.805Z,71.40
2019-03-17T06:45:00.334Z,71.80
2019-03-17T06:47:28.763Z,72.00
2019-03-17T06:49:58.238Z,72.20
2019-03-17T06:52:26.649Z,72.00
2019-03-17T06:54:55.219Z,71.60
2019-03-17T06:57:23.730Z,71.30
2019-03-17T06:59:52.196Z,71.50
2019-03-17T07:02:20.642Z,72.00
2019-03-17T07:04:49.047Z,71.60
2019-03-17T07:07:17.526Z,71.70
2019-03-17T07:09:46.011Z,71.50
2019-03-17T07:12:14.424Z,71.70
2019-03-17T07:14:42.878Z,71.90
2019-03-17T07:17:11.311Z,71.80
2019-03-17T07:19:39.730Z,72.10
2019-03-17T07:22:08.170Z,72.50
2019-03-17T07:24:36.592Z,72.50
2019-03-17T07:27:05.292Z,72.30
2019-03-17T07:29:33.765Z,72.10
2019-03-17T07:32:03.896Z,71.60
2019-03-17T07:34:32.342Z,71.40
2019-03-17T07:37:00.847Z,71.40
2019-03-17T07:39:30.250Z,70.80
2019-03-17T07:41:58.675Z,70.40
2019-03-17T07:44:27.175Z,69.60
2019-03-17T07:46:55.698Z,68.90
2019-03-17T07:49:27.087Z,67.50
2019-03-17T07:51:55.531Z,67.20
2019-03-17T07:54:23.959Z,66.50
2019-03-17T07:56:52.478Z,66.50
2019-03-17T07:59:21.002Z,67.70
2019-03-17T08:01:49.480Z,68.00
2019-03-17T08:04:17.896Z,69.40
2019-03-17T08:06:46.350Z,70.30
2019-03-17T08:09:14.890Z,70.20
2019-03-17T08:11:43.391Z,71.30
2019-03-17T08:14:11.797Z,71.00
2019-03-17T08:16:40.365Z,71.00
2019-03-17T08:19:08.972Z,71.50
2019-03-17T08:21:37.398Z,71.40
2019-03-17T08:24:05.954Z,71.00
2019-03-17T08:26:34.490Z,70.40
2019-03-17T08:29:02.991Z,69.30
2019-03-17T08:31:31.444Z,69.50
2019-03-17T08:33:59.864Z,69.40
2019-03-17T08:36:28.318Z,69.50
2019-03-17T08:38:56.745Z,68.90
2019-03-17T08:41:25.195Z,68.50
2019-03-17T08:43:54.645Z,68.30
2019-03-17T08:46:23.383Z,69.40
2019-03-17T08:48:51.817Z,70.10
2019-03-17T08:51:20.389Z,70.30
2019-03-17T08:53:50.564Z,70.20
2019-03-17T08:56:19.023Z,71.00
2019-03-17T08:58:47.742Z,71.50
2019-03-17T09:01:17.372Z,71.70
2019-03-17T09:03:46.033Z,72.00
2019-03-17T09:06:14.549Z,72.00
2019-03-17T09:08:44.639Z,72.20
2019-03-17T09:11:15.838Z,72.30
2019-03-17T09:13:47.070Z,72.00
2019-03-17T09:16:15.566Z,71.90
2019-03-17T09:18:44.105Z,71.50
2019-03-17T09:21:12.536Z,71.70
2019-03-17T09:23:42.679Z,72.20
2019-03-17T09:26:11.159Z,72.90
2019-03-17T09:28:39.692Z,73.40
2019-03-17T09:31:08.305Z,72.70
2019-03-17T09:33:36.718Z,73.30
2019-03-17T09:36:06.420Z,73.50
2019-03-17T09:38:46.385Z,73.60
2019-03-17T09:41:06.888Z,73.90
2019-03-17T09:43:36.038Z,73.70
2019-03-17T09:46:04.489Z,73.40
2019-03-17T09:48:33.007Z,73.40
2019-03-17T09:51:01.414Z,73.60
2019-03-17T09:53:29.900Z,74.20
2019-03-17T09:55:58.428Z,74.80
2019-03-17T09:58:26.946Z,73.60
2019-03-17T10:00:55.419Z,73.20
2019-03-17T10:03:23.979Z,73.60
2019-03-17T10:05:52.493Z,73.70
2019-03-17T10:08:21.095Z,73.50
2019-03-17T10:10:49.766Z,73.70
2019-03-17T10:13:18.650Z,73.20
2019-03-17T10:15:47.157Z,73.70
2019-03-17T10:18:15.773Z,72.50
2019-03-17T10:20:44.362Z,73.40
2019-03-17T10:23:12.844Z,73.70
2019-03-17T10:25:41.471Z,73.90
2019-03-17T10:28:09.970Z,74.10
2019-03-17T10:30:38.635Z,74.70
2019-03-17T10:33:07.120Z,75.00
2019-03-17T10:35:35.646Z,75.80
2019-03-17T10:38:04.137Z,76.10
2019-03-17T10:40:32.796Z,76.60
2019-03-17T10:43:01.238Z,76.90
2019-03-17T10:45:29.783Z,77.20
2019-03-17T10:47:58.250Z,77.50
2019-03-17T10:50:26.816Z,77.80
2019-03-17T10:52:55.298Z,78.30
2019-03-17T10:55:23.801Z,79.40
2019-03-17T10:57:52.482Z,80.40
2019-03-17T11:00:22.313Z,81.30
2019-03-17T11:02:53.802Z,82.50
2019-03-17T11:05:22.327Z,84.50
2019-03-17T11:07:50.919Z,86.20
2019-03-17T11:10:19.478Z,87.70
2019-03-17T11:12:47.975Z,89.20
2019-03-17T11:15:17.483Z,90.00
2019-03-17T11:17:46.162Z,90.80
2019-03-17T11:20:15.123Z,90.70
2019-03-17T11:22:43.868Z,90.70
2019-03-17T11:25:13.543Z,91.10
2019-03-17T11:27:42.086Z,91.60
2019-03-17T11:30:18.782Z,91.90
2019-03-17T11:32:47.306Z,92.30
2019-03-17T11:35:15.790Z,92.80
2019-03-17T11:37:44.242Z,93.20
2019-03-17T11:40:23.308Z,93.40
2019-03-17T11:42:51.849Z,93.50
2019-03-17T11:45:20.387Z,93.80
2019-03-17T11:47:48.827Z,94.20
2019-03-17T11:50:18.421Z,94.40
2019-03-17T11:52:47.192Z,93.90
2019-03-17T11:55:15.930Z,93.20
2019-03-17T11:57:44.359Z,92.60
2019-03-17T12:00:15.446Z,91.40
2019-03-17T12:02:43.931Z,91.00
2019-03-17T12:05:21.053Z,91.10
2019-03-17T12:07:49.660Z,91.30
2019-03-17T12:10:19.475Z,91.30
2019-03-17T12:12:48.033Z,91.10
2019-03-17T12:15:35.962Z,91.50
2019-03-17T12:18:04.601Z,91.90
2019-03-17T12:20:33.137Z,92.10
2019-03-17T12:23:01.596Z,92.50
2019-03-17T12:25:30.134Z,92.60
2019-03-17T12:27:58.583Z,92.30
2019-03-17T12:30:27.928Z,92.10
2019-03-17T12:32:56.397Z,91.50
2019-03-17T12:35:25.013Z,91.10
2019-03-17T12:37:53.621Z,91.30
2019-03-17T12:40:22.051Z,90.20
2019-03-17T12:42:50.558Z,89.90
2019-03-17T12:45:19.009Z,87.00
2019-03-17T12:47:53.343Z,87.40
2019-03-17T12:50:23.549Z,88.10
2019-03-17T12:52:52.083Z,89.50
2019-03-17T12:55:21.326Z,90.20
2019-03-17T12:57:49.937Z,90.50
2019-03-17T13:00:22.694Z,91.30
2019-03-17T13:02:51.156Z,91.70
2019-03-17T13:05:19.636Z,91.60
2019-03-17T13:07:48.085Z,91.50
2019-03-17T13:10:18.630Z,90.90
2019-03-17T13:12:47.132Z,90.70
2019-03-17T13:15:15.666Z,90.00
2019-03-17T13:17:44.063Z,90.60
2019-03-17T13:20:17.319Z,89.80
2019-03-17T13:22:45.828Z,90.30
2019-03-17T13:25:14.460Z,90.30
2019-03-17T13:27:42.882Z,89.80
2019-03-17T13:30:13.299Z,88.70
2019-03-17T13:32:41.890Z,88.90
2019-03-17T13:35:10.782Z,89.80
2019-03-17T13:37:39.278Z,88.90
2019-03-17T13:40:27.723Z,88.90
2019-03-17T13:42:45.860Z,89.40
2019-03-17T13:45:35.154Z,90.10
2019-03-17T13:48:03.594Z,90.70
2019-03-17T13:50:32.127Z,90.40
2019-03-17T13:53:22.809Z,90.20
2019-03-17T13:55:51.373Z,90.60
2019-03-17T13:58:20.466Z,90.40
2019-03-17T14:00:49.682Z,90.40
2019-03-17T14:03:18.204Z,90.50
2019-03-17T14:05:46.653Z,90.70
2019-03-17T14:08:15.134Z,90.00
2019-03-17T14:10:43.611Z,89.20
2019-03-17T14:13:12.065Z,88.70
2019-03-17T14:15:40.490Z,89.00
2019-03-17T14:18:08.929Z,87.30
2019-03-17T14:20:37.447Z,86.50
2019-03-17T14:23:05.909Z,87.40
2019-03-17T14:25:35.883Z,88.00
2019-03-17T14:28:04.474Z,88.10
2019-03-17T14:30:32.983Z,89.90
2019-03-17T14:33:01.420Z,89.30
2019-03-17T14:35:29.950Z,87.80
2019-03-17T14:37:58.382Z,87.50
2019-03-17T14:40:26.859Z,87.70
2019-03-17T14:42:55.826Z,86.50
2019-03-17T14:45:25.384Z,86.20
2019-03-17T14:47:53.868Z,85.50
2019-03-17T14:50:23.441Z,84.80
2019-03-17T14:52:52.018Z,85.00
2019-03-17T14:55:20.677Z,84.90
2019-03-17T14:57:49.120Z,84.60
2019-03-17T15:00:23.570Z,84.10
2019-03-17T15:02:52.076Z,84.10
2019-03-17T15:05:20.516Z,83.60
2019-03-17T15:07:49.013Z,83.60
2019-03-17T15:10:24.719Z,84.40
2019-03-17T15:12:53.435Z,83.60
2019-03-17T15:15:22.703Z,83.00
2019-03-17T15:17:51.335Z,82.40
2019-03-17T15:20:27.564Z,82.60
2019-03-17T15:22:56.183Z,84.10
2019-03-17T15:25:24.756Z,84.10
2019-03-17T15:27:53.317Z,84.30
2019-03-17T15:30:26.344Z,83.90
2019-03-17T15:32:54.059Z,84.20
2019-03-17T15:35:22.679Z,84.60
2019-03-17T15:37:51.330Z,85.00
2019-03-17T15:40:22.175Z,85.00
2019-03-17T15:42:50.728Z,85.70
2019-03-17T15:45:22.897Z,85.50
2019-03-17T15:47:51.459Z,85.50
2019-03-17T15:50:27.621Z,85.30
2019-03-17T15:53:15.478Z,85.60
2019-03-17T15:55:43.905Z,86.10
2019-03-17T15:58:12.359Z,86.30
2019-03-17T16:00:40.764Z,87.40
2019-03-17T16:03:09.230Z,88.80
2019-03-17T16:05:37.765Z,89.60
2019-03-17T16:08:06.235Z,90.20
2019-03-17T16:10:34.687Z,90.70
2019-03-17T16:13:03.239Z,91.20
2019-03-17T16:15:31.906Z,91.10
2019-03-17T16:18:00.273Z,91.00
2019-03-17T16:20:28.991Z,91.30
2019-03-17T16:22:57.483Z,91.40
2019-03-17T16:25:27.928Z,90.90
2019-03-17T16:27:56.435Z,91.20
2019-03-17T16:30:30.030Z,90.80
2019-03-17T16:32:58.607Z,90.70
2019-03-17T16:35:27.118Z,91.00
2019-03-17T16:37:55.601Z,91.20
2019-03-17T16:40:32.360Z,91.20
2019-03-17T16:43:01.389Z,91.60
2019-03-17T16:45:29.830Z,91.60
2019-03-17T16:47:58.259Z,90.30
2019-03-17T16:50:26.859Z,90.70
2019-03-17T16:52:55.679Z,90.90
2019-03-17T16:55:24.169Z,90.70
2019-03-17T16:57:52.601Z,90.80
2019-03-17T17:00:45.029Z,90.80
2019-03-17T17:03:13.450Z,89.60
2019-03-17T17:05:41.928Z,88.20
2019-03-17T17:08:10.334Z,88.50
2019-03-17T17:10:39.196Z,88.40
2019-03-17T17:13:07.977Z,87.90
2019-03-17T17:15:56.620Z,86.20
2019-03-17T17:18:25.060Z,87.10
2019-03-17T17:20:53.517Z,88.20
2019-03-17T17:23:21.950Z,88.20
2019-03-17T17:25:50.469Z,89.30
2019-03-17T17:28:19.003Z,89.80
2019-03-17T17:30:47.686Z,89.10
2019-03-17T17:33:16.339Z,88.80
2019-03-17T17:35:44.854Z,89.10
2019-03-17T17:38:14.953Z,89.00
2019-03-17T17:40:43.460Z,89.60
2019-03-17T17:43:12.014Z,89.90
2019-03-17T17:45:40.517Z,90.10
2019-03-17T17:48:08.994Z,90.10
2019-03-17T17:50:37.546Z,90.30
2019-03-17T17:53:07.044Z,90.40
2019-03-17T17:55:35.499Z,90.80
2019-03-17T17:58:03.996Z,91.10
2019-03-17T18:00:40.163Z,91.20
2019-03-17T18:03:08.586Z,91.20
2019-03-17T18:05:37.107Z,91.30
2019-03-17T18:08:05.568Z,91.50
2019-03-17T18:10:34.018Z,91.40
2019-03-17T18:13:02.535Z,91.50
2019-03-17T18:15:34.063Z,91.20
2019-03-17T18:18:02.645Z,90.90
2019-03-17T18:20:31.292Z,91.10
2019-03-17T18:22:59.790Z,90.70
2019-03-17T18:25:28.230Z,90.50
2019-03-17T18:27:56.768Z,90.20
2019-03-17T18:30:25.632Z,90.30
2019-03-17T18:32:55.406Z,90.40
2019-03-17T18:35:24.101Z,90.20
2019-03-17T18:37:52.764Z,90.20
2019-03-17T18:40:22.259Z,90.20
2019-03-17T18:42:50.918Z,90.20
2019-03-17T18:45:42.443Z,90.30
2019-03-17T18:48:09.817Z,90.50
2019-03-17T18:50:38.223Z,90.60
2019-03-17T18:53:06.654Z,91.00
2019-03-17T18:55:35.216Z,90.80
2019-03-17T18:58:03.727Z,90.60
2019-03-17T19:00:32.200Z,90.60
2019-03-17T19:03:00.645Z,90.80
2019-03-17T19:05:29.193Z,90.90
2019-03-17T19:07:57.622Z,91.10
2019-03-17T19:10:26.039Z,90.90
2019-03-17T19:12:54.604Z,90.90
2019-03-17T19:15:23.472Z,90.90
2019-03-17T19:17:52.073Z,90.90
2019-03-17T19:20:22.692Z,91.20
2019-03-17T19:22:51.245Z,91.30
2019-03-17T19:25:21.702Z,91.30
2019-03-17T19:27:50.245Z,91.30
2019-03-17T19:30:22.693Z,91.90
2019-03-17T19:32:51.459Z,91.80
2019-03-17T19:35:20.103Z,91.70
2019-03-17T19:37:48.884Z,91.70
2019-03-17T19:40:23.150Z,91.60
2019-03-17T19:42:58.654Z,91.70
2019-03-17T19:45:21.937Z,91.90
2019-03-17T19:47:50.374Z,92.20
2019-03-17T19:50:20.960Z,92.40
2019-03-17T19:52:49.452Z,92.70
2019-03-17T19:55:17.870Z,93.10
2019-03-17T19:57:46.498Z,93.30
2019-03-17T20:00:16.830Z,93.30
2019-03-17T20:02:47.547Z,93.40
2019-03-17T20:05:15.800Z,93.60
2019-03-17T20:07:44.359Z,93.70
2019-03-17T20:10:18.792Z,93.70
2019-03-17T20:12:47.410Z,93.60
2019-03-17T20:15:15.866Z,93.70
2019-03-17T20:17:44.399Z,93.70
2019-03-17T20:20:14.478Z,93.70
2019-03-17T20:22:42.989Z,93.40
2019-03-17T20:25:11.437Z,93.10
2019-03-17T20:27:39.884Z,93.40
2019-03-17T20:30:14.934Z,93.20
2019-03-17T20:32:43.367Z,92.70
2019-03-17T20:35:13.126Z,92.80
2019-03-17T20:37:44.462Z,92.60
2019-03-17T20:40:19.846Z,92.40
2019-03-17T20:42:48.322Z,92.50
2019-03-17T20:45:19.974Z,92.10
2019-03-17T20:47:46.991Z,92.20
2019-03-17T20:50:37.686Z,91.70
2019-03-17T20:53:06.167Z,91.70
2019-03-17T20:55:34.735Z,91.70
2019-03-17T20:58:03.217Z,91.40
2019-03-17T21:00:31.764Z,91.30
2019-03-17T21:03:00.203Z,91.10
2019-03-17T21:05:29.701Z,91.00
2019-03-17T21:07:58.182Z,90.70
2019-03-17T21:10:26.652Z,90.70
2019-03-17T21:12:55.116Z,90.50
2019-03-17T21:15:23.591Z,90.30
2019-03-17T21:17:51.998Z,90.10
2019-03-17T21:20:22.411Z,90.40
2019-03-17T21:22:50.844Z,90.70
2019-03-17T21:25:19.395Z,90.70
2019-03-17T21:27:47.842Z,90.80
2019-03-17T21:30:22.018Z,91.30
2019-03-17T21:32:50.484Z,91.40
2019-03-17T21:35:18.873Z,91.60
2019-03-17T21:37:47.358Z,91.40
2019-03-17T21:40:15.815Z,91.00
2019-03-17T21:42:44.263Z,90.20
2019-03-17T21:45:19.990Z,90.10
2019-03-17T21:47:48.445Z,89.40
2019-03-17T21:50:27.414Z,89.60
2019-03-17T21:52:55.927Z,89.50
2019-03-17T21:55:24.342Z,89.60
2019-03-17T21:57:52.815Z,89.40
2019-03-17T22:00:21.572Z,90.00
2019-03-17T22:02:50.008Z,90.80
2019-03-17T22:05:18.584Z,91.10
2019-03-17T22:07:51.195Z,91.00
2019-03-17T22:10:21.193Z,91.00
2019-03-17T22:12:49.683Z,91.10
2019-03-17T22:15:18.664Z,90.70
2019-03-17T22:17:47.175Z,90.60
2019-03-17T22:20:15.985Z,90.80
2019-03-17T22:22:44.395Z,90.50
2019-03-17T22:25:14.887Z,90.40
2019-03-17T22:27:43.305Z,90.70
2019-03-17T22:30:16.332Z,90.80
2019-03-17T22:32:44.828Z,91.00
2019-03-17T22:35:13.298Z,90.90
2019-03-17T22:37:41.796Z,90.80
2019-03-17T22:40:11.856Z,90.70
2019-03-17T22:42:40.304Z,91.10
2019-03-17T22:45:11.156Z,91.40
2019-03-17T22:47:39.659Z,91.50
2019-03-17T22:50:11.246Z,91.90
2019-03-17T22:52:39.697Z,92.00
2019-03-17T22:55:09.974Z,92.20
2019-03-17T22:57:38.509Z,92.20
2019-03-17T23:00:12.798Z,92.30
2019-03-17T23:03:00.583Z,92.60
2019-03-17T23:05:30.423Z,92.80
2019-03-17T23:07:59.065Z,93.00
2019-03-17T23:10:27.542Z,93.10
2019-03-17T23:12:57.606Z,93.10
2019-03-17T23:15:26.072Z,93.00
2019-03-17T23:17:54.503Z,92.90
2019-03-17T23:20:22.948Z,92.90
2019-03-17T23:22:51.394Z,92.90
2019-03-17T23:25:19.822Z,93.00
2019-03-17T23:27:48.287Z,93.00
2019-03-17T23:30:18.348Z,92.90
2019-03-17T23:32:49.264Z,93.00
2019-03-17T23:35:17.172Z,93.10
2019-03-17T23:37:45.598Z,93.00
2019-03-17T23:40:16.470Z,93.00
2019-03-17T23:42:44.892Z,93.00
2019-03-17T23:45:13.491Z,93.00
2019-03-17T23:47:41.964Z,92.90
2019-03-17T23:50:14.407Z,92.80
2019-03-17T23:52:43.162Z,92.70
2019-03-17T23:55:14.622Z,92.60
2019-03-17T23:57:43.086Z,92.50
